Time;durP1;ratioP1;P1;durP2;ratioP2;P2;SDS_P1;SDS_P2;PMS_P1;PMS_P2;Temp;Humidity;BMP_temperature;BMP_pressure;BME280_temperature;BME280_humidity;BME280_pressure;Samples;Min_cycle;Max_cycle;Signal;HPM_P1;HPM_P2
2022/05/19 00:03:27;;;;;;;6.32;3.50;;;;;15.10;97024.00;;;;8414392;28;20231;-73
2022/05/19 00:07:30;;;;;;;4.18;2.95;;;;;15.20;97018.00;;;;8416156;28;21007;-73
2022/05/19 00:11:34;;;;;;;3.10;2.63;;;;;15.20;97020.00;;;;8407362;28;20227;-73
2022/05/19 00:15:38;;;;;;;2.92;2.63;;;;;15.20;97016.00;;;;8415036;28;20603;-73
2022/05/19 00:19:42;;;;;;;4.70;3.05;;;;;15.10;97009.00;;;;8415401;28;20238;-73
2022/05/19 00:23:45;;;;;;;4.68;2.45;;;;;15.10;97005.00;;;;8407643;28;20277;-73
2022/05/19 00:27:48;;;;;;;3.58;2.92;;;;;15.00;97002.00;;;;8406018;28;20316;-73
2022/05/19 00:31:54;;;;;;;3.60;2.85;;;;;15.00;97001.00;;;;8408722;28;20317;-73
2022/05/19 00:35:58;;;;;;;4.60;2.78;;;;;14.90;97000.00;;;;8412173;28;20240;-73
2022/05/19 00:40:01;;;;;;;4.68;2.55;;;;;14.90;96992.00;;;;8416640;28;20237;-71
2022/05/19 00:44:07;;;;;;;5.07;2.92;;;;;14.80;97003.00;;;;8410129;28;20225;-72
2022/05/19 00:48:18;;;;;;;5.68;2.67;;;;;14.70;96993.00;;;;8413756;28;20225;-72
2022/05/19 00:52:25;;;;;;;2.85;2.60;;;;;14.60;96992.00;;;;8411754;28;20229;-71
2022/05/19 00:56:33;;;;;;;7.60;2.90;;;;;14.50;96988.00;;;;8415001;28;20943;-72
2022/05/19 01:00:37;;;;;;;5.25;2.80;;;;;14.50;96982.00;;;;8414412;28;20223;-72
2022/05/19 01:04:48;;;;;;;7.00;2.88;;;;;14.40;96978.00;;;;8412769;28;20243;-72
2022/05/19 01:08:56;;;;;;;2.47;2.38;;;;;14.30;96979.00;;;;8409391;28;20316;-72
2022/05/19 01:12:59;;;;;;;6.50;2.60;;;;;14.20;96986.00;;;;8411118;28;20229;-72
2022/05/19 01:17:05;;;;;;;3.72;2.63;;;;;14.10;96984.00;;;;8410330;28;20225;-72
2022/05/19 01:21:13;;;;;;;7.70;2.83;;;;;14.00;96980.00;;;;8413228;28;20261;-73
2022/05/19 01:25:25;;;;;;;3.50;2.75;;;;;13.90;96976.00;;;;8413472;28;20225;-72
2022/05/19 01:29:30;;;;;;;8.48;3.45;;;;;13.70;96971.00;;;;8413130;28;20263;-72
2022/05/19 01:33:33;;;;;;;9.43;3.80;;;;;13.50;96971.00;;;;8411746;28;20319;-72
2022/05/19 01:37:36;;;;;;;5.45;2.83;;;;;13.20;96974.00;;;;8405541;28;20651;-73
2022/05/19 01:41:57;;;;;;;3.47;3.17;;;;;12.90;96971.00;;;;8403687;28;20234;-73
2022/05/19 01:46:18;;;;;;;4.20;2.92;;;;;12.50;96960.00;;;;8409734;28;20741;-72
2022/05/19 01:50:28;;;;;;;6.65;3.65;;;;;12.20;96955.00;;;;8411754;28;20242;-73
2022/05/19 01:54:37;;;;;;;8.38;3.65;;;;;12.00;96970.00;;;;8413034;28;20755;-72
2022/05/19 01:58:46;;;;;;;6.10;3.80;;;;;12.00;96958.00;;;;8411414;28;20235;-72
2022/05/19 02:02:59;;;;;;;5.45;3.92;;;;;11.70;96961.00;;;;8404531;28;20314;-74
2022/05/19 02:07:05;;;;;;;8.70;4.15;;;;;11.50;96952.00;;;;8398476;28;20643;-73
2022/05/19 02:11:12;;;;;;;4.60;4.10;;;;;11.30;96955.00;;;;8418012;28;20254;-73
2022/05/19 02:15:18;;;;;;;7.73;4.17;;;;;11.20;96953.00;;;;8408946;28;20227;-73
2022/05/19 02:19:28;;;;;;;6.00;3.87;;;;;11.20;96953.00;;;;8420246;28;20989;-73
2022/05/19 02:23:33;;;;;;;6.13;4.17;;;;;11.20;96949.00;;;;8416195;28;20229;-73
2022/05/19 02:27:41;;;;;;;4.73;3.83;;;;;11.20;96955.00;;;;8411698;28;20723;-72
2022/05/19 02:31:44;;;;;;;8.23;4.13;;;;;11.10;96959.00;;;;8414564;28;20599;-73
2022/05/19 02:35:49;;;;;;;7.67;4.10;;;;;11.10;96953.00;;;;8417739;28;20889;-72
2022/05/19 02:39:53;;;;;;;4.20;3.70;;;;;11.00;96952.00;;;;8417483;28;20298;-72
2022/05/19 02:43:56;;;;;;;6.10;4.20;;;;;11.00;96954.00;;;;8416396;28;20231;-72
2022/05/19 02:47:59;;;;;;;7.43;4.60;;;;;11.00;96950.00;;;;8417397;28;20262;-72
2022/05/19 02:52:05;;;;;;;6.20;4.07;;;;;11.00;96953.00;;;;8415637;28;20219;-72
2022/05/19 02:56:08;;;;;;;6.27;3.97;;;;;11.00;96958.00;;;;8420512;28;20298;-72
2022/05/19 03:00:14;;;;;;;6.30;3.70;;;;;11.00;96946.00;;;;8416161;28;20306;-73
2022/05/19 03:04:18;;;;;;;6.23;3.90;;;;;11.00;96961.00;;;;8446554;22;21058;-72
2022/05/19 03:08:22;;;;;;;5.80;4.23;;;;;10.90;96966.00;;;;8408771;28;20244;-72
2022/05/19 03:12:25;;;;;;;7.50;4.00;;;;;10.90;96959.00;;;;8407539;28;20228;-73
2022/05/19 03:16:29;;;;;;;9.73;4.27;;;;;10.80;96952.00;;;;8407607;28;20235;-73
2022/05/19 03:20:32;;;;;;;12.90;4.40;;;;;10.70;96950.00;;;;8405778;28;20228;-73
2022/05/19 03:24:37;;;;;;;9.93;4.03;;;;;10.60;96950.00;;;;8408998;28;20227;-72
2022/05/19 03:28:40;;;;;;;6.27;4.20;;;;;10.50;96947.00;;;;8405556;28;20238;-72
2022/05/19 03:32:44;;;;;;;4.73;4.23;;;;;10.40;96946.00;;;;8415565;28;20741;-73
2022/05/19 03:36:48;;;;;;;6.60;4.30;;;;;10.40;96939.00;;;;8414691;28;20231;-73
2022/05/19 03:40:53;;;;;;;5.37;4.20;;;;;10.40;96943.00;;;;8411271;28;20218;-73
2022/05/19 03:44:56;;;;;;;6.67;4.40;;;;;10.40;96950.00;;;;8413231;28;20386;-73
2022/05/19 03:49:00;;;;;;;8.47;4.07;;;;;10.50;96945.00;;;;8413140;28;20358;-72
2022/05/19 03:53:03;;;;;;;12.23;4.20;;;;;10.50;96949.00;;;;8414024;28;20919;-72
2022/05/19 03:57:08;;;;;;;5.77;4.40;;;;;10.50;96957.00;;;;8408632;28;20667;-71
2022/05/19 04:01:11;;;;;;;4.30;3.90;;;;;10.40;96951.00;;;;8409278;28;20250;-71
2022/05/19 04:05:15;;;;;;;7.67;4.40;;;;;10.40;96950.00;;;;8379376;28;20224;-73
2022/05/19 04:09:18;;;;;;;7.47;4.70;;;;;10.40;96944.00;;;;8378787;28;20245;-72
2022/05/19 04:13:23;;;;;;;6.13;4.47;;;;;10.70;96935.00;;;;8379452;28;20725;-72
2022/05/19 04:17:33;;;;;;;8.77;5.23;;;;;11.00;96942.00;;;;8363009;28;20649;-71
2022/05/19 04:21:36;;;;;;;9.37;4.90;;;;;11.20;96941.00;;;;8366981;28;20627;-71
2022/05/19 04:25:40;;;;;;;6.30;4.10;;;;;11.50;96946.00;;;;8365895;28;20223;-70
2022/05/19 04:29:45;;;;;;;6.93;4.63;;;;;11.80;96947.00;;;;8367591;28;20726;-70
2022/05/19 04:33:48;;;;;;;14.77;4.40;;;;;12.30;96951.00;;;;8364840;28;20324;-71
2022/05/19 04:37:52;;;;;;;7.30;4.00;;;;;12.70;96949.00;;;;8371784;28;20633;-72
2022/05/19 04:41:55;;;;;;;6.87;3.63;;;;;13.30;96960.00;;;;8366031;28;20216;-72
2022/05/19 04:46:00;;;;;;;5.00;3.78;;;;;13.80;96962.00;;;;8372569;28;20231;-72
2022/05/19 04:50:03;;;;;;;6.03;3.70;;;;;14.30;96954.00;;;;8365709;28;20225;-71
2022/05/19 04:54:07;;;;;;;4.97;3.67;;;;;14.80;96959.00;;;;8356305;28;20608;-71
2022/05/19 04:58:10;;;;;;;6.68;3.28;;;;;15.40;96956.00;;;;8370942;28;20218;-71
2022/05/19 05:02:15;;;;;;;5.25;2.90;;;;;16.00;96963.00;;;;8372630;28;20237;-70
2022/05/19 05:06:18;;;;;;;6.53;3.28;;;;;16.60;96953.00;;;;8369469;28;20222;-70
2022/05/19 05:10:22;;;;;;;5.72;3.22;;;;;17.10;96965.00;;;;8364476;28;20267;-70
2022/05/19 05:14:25;;;;;;;4.47;3.35;;;;;17.40;96965.00;;;;8370359;28;20224;-70
2022/05/19 05:18:30;;;;;;;8.73;3.75;;;;;17.60;96962.00;;;;8354178;28;20224;-70
2022/05/19 05:22:34;;;;;;;14.27;5.18;;;;;17.90;96958.00;;;;8371059;28;20228;-71
2022/05/19 05:26:38;;;;;;;7.32;3.60;;;;;18.00;96955.00;;;;8358271;28;20238;-69
2022/05/19 05:30:41;;;;;;;3.83;3.17;;;;;18.10;96964.00;;;;8361826;28;20236;-70
2022/05/19 05:34:46;;;;;;;4.63;3.20;;;;;18.30;96961.00;;;;8371872;28;20985;-72
2022/05/19 05:38:49;;;;;;;3.38;3.08;;;;;18.50;96962.00;;;;8366838;28;20327;-72
2022/05/19 05:42:52;;;;;;;5.45;2.60;;;;;18.90;96970.00;;;;8357852;28;20232;-71
2022/05/19 05:46:56;;;;;;;5.40;2.83;;;;;19.10;96979.00;;;;8361607;28;20718;-71
2022/05/19 05:51:00;;;;;;;3.58;2.95;;;;;19.30;96973.00;;;;8362352;28;20224;-72
2022/05/19 05:55:04;;;;;;;6.97;2.92;;;;;19.40;96976.00;;;;8369850;28;20900;-73
2022/05/19 05:59:08;;;;;;;4.32;2.80;;;;;19.60;96980.00;;;;8376170;28;20273;-73
2022/05/19 06:03:11;;;;;;;3.65;2.47;;;;;19.80;96975.00;;;;8387864;28;20323;-73
2022/05/19 06:07:16;;;;;;;4.80;2.50;;;;;19.90;96984.00;;;;8376086;28;20232;-73
2022/05/19 06:11:19;;;;;;;3.80;2.35;;;;;20.20;96983.00;;;;8380268;28;20225;-72
2022/05/19 06:15:22;;;;;;;3.13;2.28;;;;;20.40;96986.00;;;;8368828;28;20300;-73
2022/05/19 06:19:25;;;;;;;9.40;2.40;;;;;20.60;96979.00;;;;8381195;28;20237;-71
2022/05/19 06:23:32;;;;;;;5.90;2.22;;;;;20.80;96978.00;;;;8415997;28;20245;-71
2022/05/19 06:27:36;;;;;;;4.50;2.30;;;;;21.10;96983.00;;;;8415365;28;20318;-73
2022/05/19 06:31:39;;;;;;;7.15;2.85;;;;;21.80;96978.00;;;;8413819;28;20264;-72
2022/05/19 06:35:42;;;;;;;8.57;2.60;;;;;22.60;96984.00;;;;8407333;28;20265;-72
2022/05/19 06:39:47;;;;;;;5.97;2.50;;;;;23.20;96985.00;;;;8416172;28;20254;-72
2022/05/19 06:43:50;;;;;;;3.55;2.55;;;;;23.70;96987.00;;;;8408556;28;20247;-73
2022/05/19 06:47:54;;;;;;;6.28;2.88;;;;;23.80;96986.00;;;;8411974;28;20219;-72
2022/05/19 06:51:57;;;;;;;3.42;2.63;;;;;24.10;97004.00;;;;8405703;28;20244;-72
2022/05/19 06:56:02;;;;;;;3.65;2.30;;;;;24.30;96993.00;;;;8401210;28;20224;-72
2022/05/19 07:00:07;;;;;;;7.22;3.15;;;;;24.50;96987.00;;;;8403944;28;20231;-72
2022/05/19 07:04:11;;;;;;;5.63;2.38;;;;;24.90;96988.00;;;;8404382;28;20233;-73
2022/05/19 07:08:13;;;;;;;3.90;2.72;;;;;25.30;96985.00;;;;8413726;28;20219;-73
2022/05/19 07:12:23;;;;;;;6.50;2.40;;;;;25.40;96987.00;;;;8411729;28;20318;-74
2022/05/19 07:16:28;;;;;;;6.10;2.53;;;;;25.50;96991.00;;;;8395298;28;20688;-73
2022/05/19 07:20:44;;;;;;;4.90;2.30;;;;;25.50;96996.00;;;;8397084;28;20241;-73
2022/05/19 07:24:48;;;;;;;2.65;2.28;;;;;25.70;96988.00;;;;8414690;28;20310;-71
2022/05/19 07:28:53;;;;;;;4.25;2.20;;;;;26.00;96982.00;;;;8407444;28;20231;-73
2022/05/19 07:32:56;;;;;;;5.38;2.15;;;;;26.10;96987.00;;;;8401341;28;20219;-74
2022/05/19 07:37:00;;;;;;;7.22;2.10;;;;;26.20;96996.00;;;;8416200;28;20219;-73
2022/05/19 07:41:04;;;;;;;5.22;2.33;;;;;26.50;97000.00;;;;8406853;28;20228;-74
2022/05/19 07:45:10;;;;;;;5.57;2.40;;;;;26.80;96992.00;;;;8402565;28;20307;-74
2022/05/19 07:49:13;;;;;;;2.25;2.05;;;;;27.20;96990.00;;;;8407970;28;20222;-74
2022/05/19 07:53:16;;;;;;;2.75;2.28;;;;;27.50;96996.00;;;;8404378;28;20224;-74
2022/05/19 07:57:20;;;;;;;2.50;2.30;;;;;27.70;96993.00;;;;8400465;28;20323;-74
2022/05/19 08:01:25;;;;;;;2.25;2.10;;;;;27.90;96989.00;;;;8398430;28;20246;-72
2022/05/19 08:05:28;;;;;;;3.92;2.53;;;;;28.00;96996.00;;;;8398427;28;20277;-73
2022/05/19 08:18:18;;;;;;;10.20;2.67;;;;;28.60;96988.00;;;;8393537;28;20215;-73
2022/05/19 08:22:21;;;;;;;2.75;2.55;;;;;28.90;96989.00;;;;8402574;28;20317;-72
2022/05/19 08:26:25;;;;;;;2.85;2.30;;;;;29.20;96999.00;;;;8406322;28;20223;-73
2022/05/19 08:30:28;;;;;;;7.38;2.40;;;;;29.30;97000.00;;;;8407779;28;20315;-73
2022/05/19 08:34:33;;;;;;;4.72;2.60;;;;;29.60;97002.00;;;;8402684;28;20246;-73
2022/05/19 08:38:36;;;;;;;5.70;2.60;;;;;29.90;96992.00;;;;8401759;28;20227;-73
2022/05/19 08:42:43;;;;;;;5.20;2.50;;;;;30.20;96987.00;;;;8396858;28;20258;-72
2022/05/19 08:46:49;;;;;;;5.32;2.70;;;;;30.60;96983.00;;;;8404614;28;20222;-72
2022/05/19 08:50:57;;;;;;;6.40;2.25;;;;;30.60;96982.00;;;;8412092;28;20227;-72
2022/05/19 08:55:01;;;;;;;2.47;2.20;;;;;30.80;96987.00;;;;8404277;28;20222;-72
2022/05/19 08:59:19;;;;;;;4.53;2.50;;;;;31.20;96988.00;;;;8407752;28;20322;-72
2022/05/19 09:03:29;;;;;;;3.20;2.15;;;;;31.70;96991.00;;;;8406956;28;20730;-72
2022/05/19 09:12:04;;;;;;;4.10;2.22;;;;;32.40;96977.00;;;;8385078;28;20222;-71
2022/05/19 09:16:13;;;;;;;3.03;2.10;;;;;32.30;96986.00;;;;8411750;28;20215;-71
2022/05/19 09:20:21;;;;;;;3.45;2.50;;;;;32.40;96975.00;;;;8406485;28;20219;-72
2022/05/19 09:24:26;;;;;;;3.17;2.35;;;;;32.70;96977.00;;;;8404679;28;20223;-72
2022/05/19 09:28:29;;;;;;;6.32;2.60;;;;;33.00;96982.00;;;;8407679;28;20713;-72
2022/05/19 09:32:37;;;;;;;3.15;2.30;;;;;32.90;96973.00;;;;8410628;28;20223;-71
2022/05/19 09:37:00;;;;;;;6.68;2.20;;;;;33.10;96967.00;;;;8404141;28;20246;-72
2022/05/19 09:41:07;;;;;;;2.53;2.28;;;;;33.50;96970.00;;;;8409775;28;20311;-71
2022/05/19 09:45:10;;;;;;;5.45;2.08;;;;;33.80;96973.00;;;;8413323;28;20292;-72
2022/05/19 09:49:25;;;;;;;4.93;2.03;;;;;34.10;96983.00;;;;8400352;28;20259;-71
2022/05/19 09:53:30;;;;;;;2.58;2.13;;;;;34.70;96965.00;;;;8402995;28;20223;-72
2022/05/19 09:57:43;;;;;;;2.53;1.90;;;;;35.00;96971.00;;;;8398976;28;20227;-71
2022/05/19 10:01:49;;;;;;;3.28;2.40;;;;;35.40;96960.00;;;;8405356;28;20239;-71
2022/05/19 10:05:56;;;;;;;6.80;2.22;;;;;35.40;96952.00;;;;8405005;28;20238;-72
2022/05/19 10:10:00;;;;;;;2.78;2.33;;;;;35.60;96960.00;;;;8402655;28;20258;-72
2022/05/19 10:14:10;;;;;;;5.78;2.20;;;;;35.40;96951.00;;;;8411196;28;20233;-72
2022/05/19 10:18:23;;;;;;;8.13;2.67;;;;;35.50;96956.00;;;;8408989;28;20314;-71
2022/05/19 10:22:45;;;;;;;6.18;2.15;;;;;35.70;96948.00;;;;8400421;28;20224;-72
2022/05/19 10:26:53;;;;;;;2.30;2.17;;;;;35.90;96951.00;;;;8410595;28;20222;-73
2022/05/19 10:31:25;;;;;;;3.22;2.03;;;;;36.20;96944.00;;;;8393112;28;20679;-72
2022/05/19 10:35:45;;;;;;;2.25;2.15;;;;;36.10;96934.00;;;;8391477;28;20228;-69
2022/05/19 10:40:03;;;;;;;2.55;1.80;;;;;35.80;96935.00;;;;8408548;28;20254;-70
2022/05/19 10:44:30;;;;;;;3.60;2.30;;;;;36.30;96936.00;;;;8407015;28;20783;-69
2022/05/19 10:48:57;;;;;;;4.18;2.17;;;;;36.50;96937.00;;;;8406871;28;20314;-69
2022/05/19 10:53:15;;;;;;;5.75;2.38;;;;;36.90;96927.00;;;;8397942;28;20274;-70
2022/05/19 10:57:43;;;;;;;2.63;2.10;;;;;37.10;96924.00;;;;8415187;28;20907;-69
2022/05/19 11:02:01;;;;;;;9.13;2.33;;;;;37.30;96921.00;;;;8394020;28;20236;-69
2022/05/19 11:06:21;;;;;;;5.20;2.30;;;;;37.70;96917.00;;;;8402962;28;20231;-69
2022/05/19 11:10:34;;;;;;;2.92;2.25;;;;;37.70;96914.00;;;;8396255;28;20248;-68
2022/05/19 11:15:01;;;;;;;3.05;2.05;;;;;37.80;96903.00;;;;8406770;28;20227;-69
2022/05/19 11:19:10;;;;;;;7.43;2.20;;;;;38.00;96908.00;;;;8410594;28;20298;-69
2022/05/19 11:23:22;;;;;;;4.25;2.00;;;;;38.00;96904.00;;;;8405673;28;20219;-68
2022/05/19 11:27:30;;;;;;;5.13;2.22;;;;;38.00;96897.00;;;;8407186;28;20251;-69
2022/05/19 11:31:38;;;;;;;3.70;2.13;;;;;38.00;96897.00;;;;8407425;28;20330;-69
2022/05/19 11:35:46;;;;;;;3.00;2.15;;;;;38.20;96900.00;;;;8409561;28;20322;-70
2022/05/19 11:40:02;;;;;;;3.67;1.92;;;;;38.30;96897.00;;;;8416473;28;20320;-69
2022/05/19 11:44:11;;;;;;;3.28;2.17;;;;;38.80;96892.00;;;;8406817;28;20633;-69
2022/05/19 11:57:14;;;;;;;5.07;2.03;;;;;39.30;96892.00;;;;8402178;28;20208;-69
2022/05/19 12:01:23;;;;;;;3.08;2.25;;;;;39.10;96890.00;;;;8409229;28;20310;-70
2022/05/19 12:05:31;;;;;;;2.83;2.05;;;;;39.00;96889.00;;;;8410462;28;20700;-70
2022/05/19 12:09:44;;;;;;;1.95;1.83;;;;;38.90;96883.00;;;;8396768;28;20306;-69
2022/05/19 12:13:51;;;;;;;3.20;2.22;;;;;39.30;96871.00;;;;8407392;28;20900;-69
2022/05/19 12:17:58;;;;;;;3.42;2.10;;;;;39.20;96871.00;;;;8403324;28;20234;-69
2022/05/19 12:22:03;;;;;;;4.53;2.40;;;;;38.60;96873.00;;;;8398859;28;20223;-69
2022/05/19 12:26:18;;;;;;;2.65;2.10;;;;;38.20;96874.00;;;;8408208;28;20219;-69
2022/05/19 12:35:01;;;;;;;2.30;1.90;;;;;37.00;96874.00;;;;8395135;28;20690;-69
2022/05/19 12:39:29;;;;;;;2.42;2.22;;;;;36.30;96873.00;;;;8398041;28;20302;-69
2022/05/19 12:43:53;;;;;;;2.85;2.30;;;;;35.70;96872.00;;;;8408301;28;20565;-70
2022/05/19 12:48:00;;;;;;;3.72;2.00;;;;;35.30;96872.00;;;;8404313;28;20266;-70
2022/05/19 12:52:13;;;;;;;2.50;2.30;;;;;35.30;96865.00;;;;8395715;28;20230;-70
2022/05/19 12:57:05;;;;;;;2.47;2.28;;;;;35.30;96865.00;;;;8407923;28;20968;-69
2022/05/19 13:01:10;;;;;;;3.63;2.10;;;;;35.30;96861.00;;;;8304107;28;20315;-67
2022/05/19 13:05:21;;;;;;;2.33;2.20;;;;;35.30;96854.00;;;;8356913;28;20668;-69
2022/05/19 13:09:33;;;;;;;2.60;2.03;;;;;35.30;96859.00;;;;8405612;28;20251;-69
2022/05/19 13:13:41;;;;;;;2.88;2.28;;;;;35.50;96860.00;;;;8412344;28;20231;-69
2022/05/19 13:17:45;;;;;;;3.00;2.20;;;;;35.80;96849.00;;;;8413221;28;20315;-69
2022/05/19 13:21:56;;;;;;;2.40;2.05;;;;;36.40;96851.00;;;;8403998;28;20253;-69
2022/05/19 13:26:04;;;;;;;1.95;1.85;;;;;36.80;96835.00;;;;8403919;28;20227;-73
2022/05/19 13:30:22;;;;;;;2.40;2.22;;;;;37.20;96835.00;;;;8404002;28;20224;-71
2022/05/19 13:34:25;;;;;;;3.13;2.00;;;;;37.90;96838.00;;;;8405552;28;20746;-71
2022/05/19 13:38:31;;;;;;;2.58;2.30;;;;;38.50;96828.00;;;;8411138;28;20664;-72
2022/05/19 13:42:37;;;;;;;5.75;2.58;;;;;39.10;96831.00;;;;8392203;28;20649;-71
2022/05/19 13:46:41;;;;;;;2.33;2.10;;;;;39.30;96824.00;;;;8394456;28;20728;-70
2022/05/19 13:50:45;;;;;;;2.83;2.42;;;;;39.50;96828.00;;;;8406728;28;20306;-71
2022/05/19 13:54:50;;;;;;;2.20;2.00;;;;;39.50;96819.00;;;;8402130;28;20230;-71
2022/05/19 13:58:54;;;;;;;2.92;2.30;;;;;39.40;96822.00;;;;8408442;28;20380;-71
2022/05/19 14:03:00;;;;;;;2.83;2.33;;;;;39.70;96814.00;;;;8399564;28;20231;-70
2022/05/19 14:07:04;;;;;;;2.90;2.70;;;;;39.40;96811.00;;;;8396505;28;20255;-72
2022/05/19 14:11:08;;;;;;;3.75;2.30;;;;;39.20;96813.00;;;;8408331;28;20223;-71
2022/05/19 14:15:21;;;;;;;5.22;2.30;;;;;39.10;96807.00;;;;8408454;28;20265;-71
2022/05/19 14:19:36;;;;;;;2.50;2.30;;;;;39.20;96808.00;;;;8404416;28;20219;-71
2022/05/19 14:23:47;;;;;;;2.55;2.30;;;;;39.00;96802.00;;;;8398127;28;20689;-70
2022/05/19 14:27:57;;;;;;;4.57;2.72;;;;;39.00;96797.00;;;;8402235;28;20719;-70
2022/05/19 14:32:03;;;;;;;2.20;2.00;;;;;39.10;96793.00;;;;8399562;28;20227;-71
2022/05/19 14:36:11;;;;;;;2.70;2.25;;;;;39.30;96786.00;;;;8399789;28;20226;-71
2022/05/19 14:44:44;;;;;;;4.07;2.10;;;;;39.30;96767.00;;;;8403736;28;20257;-72
2022/05/19 14:48:50;;;;;;;2.83;2.10;;;;;39.20;96762.00;;;;8410398;28;20310;-71
2022/05/19 14:52:57;;;;;;;2.55;2.20;;;;;39.00;96758.00;;;;8414720;28;20250;-71
2022/05/19 14:57:05;;;;;;;2.53;2.33;;;;;39.00;96747.00;;;;8398899;28;20238;-70
2022/05/19 15:01:10;;;;;;;2.30;2.10;;;;;39.20;96746.00;;;;8409934;28;20243;-72
2022/05/19 15:05:14;;;;;;;2.42;2.15;;;;;39.50;96743.00;;;;8417191;28;20227;-72
2022/05/19 15:09:18;;;;;;;2.30;2.17;;;;;39.50;96741.00;;;;8410543;28;20807;-72
2022/05/19 15:13:22;;;;;;;5.45;3.22;;;;;39.40;96742.00;;;;8411804;28;20235;-70
2022/05/19 15:17:26;;;;;;;3.28;2.35;;;;;39.20;96733.00;;;;8408002;28;20298;-71
2022/05/19 15:21:30;;;;;;;4.13;2.40;;;;;38.80;96726.00;;;;8409527;28;20219;-72
2022/05/19 15:25:34;;;;;;;2.15;2.05;;;;;38.70;96734.00;;;;8417606;28;20297;-71
2022/05/19 15:29:39;;;;;;;6.72;2.72;;;;;38.50;96733.00;;;;8414901;28;20223;-71
2022/05/19 15:33:44;;;;;;;10.80;2.47;;;;;38.20;96730.00;;;;8397486;28;20223;-72
2022/05/19 15:37:49;;;;;;;3.63;2.20;;;;;37.90;96722.00;;;;8414202;28;21065;-71
2022/05/19 15:41:53;;;;;;;3.60;2.30;;;;;37.60;96728.00;;;;8412988;28;20867;-72
2022/05/19 15:45:58;;;;;;;1.90;1.80;;;;;37.30;96722.00;;;;8411681;28;20684;-71
2022/05/19 15:50:03;;;;;;;3.17;2.22;;;;;37.00;96714.00;;;;8408171;28;20313;-70
2022/05/19 15:54:06;;;;;;;2.10;2.00;;;;;36.80;96710.00;;;;8401088;28;20230;-71
2022/05/19 15:58:10;;;;;;;2.35;2.10;;;;;36.90;96717.00;;;;8407988;28;20225;-72
2022/05/19 16:02:20;;;;;;;2.58;1.90;;;;;36.80;96714.00;;;;8404035;28;20227;-71
2022/05/19 16:06:25;;;;;;;2.17;2.08;;;;;36.90;96710.00;;;;8401227;28;20220;-71
2022/05/19 16:10:29;;;;;;;2.70;2.35;;;;;36.80;96712.00;;;;8399315;28;20231;-71
2022/05/19 16:14:32;;;;;;;3.28;2.15;;;;;36.80;96713.00;;;;8390353;28;20334;-71
2022/05/19 16:18:36;;;;;;;2.78;2.15;;;;;36.80;96725.00;;;;8398144;28;20560;-71
2022/05/19 16:22:51;;;;;;;4.22;2.30;;;;;36.60;96724.00;;;;8402178;28;20235;-72
2022/05/19 16:26:54;;;;;;;5.18;2.40;;;;;36.80;96732.00;;;;8399212;28;20223;-72
2022/05/19 16:30:57;;;;;;;2.42;2.25;;;;;36.80;96734.00;;;;8394742;28;20311;-71
2022/05/19 16:35:00;;;;;;;4.93;2.33;;;;;36.70;96733.00;;;;8397186;28;20228;-71
2022/05/19 16:39:06;;;;;;;2.40;2.30;;;;;37.00;96736.00;;;;8399314;28;20658;-71
2022/05/19 16:43:10;;;;;;;7.05;2.72;;;;;37.30;96739.00;;;;8395558;28;20302;-72
2022/05/19 16:47:13;;;;;;;3.13;2.10;;;;;37.40;96740.00;;;;8393756;28;20254;-72
2022/05/19 16:51:17;;;;;;;2.40;2.20;;;;;36.70;96744.00;;;;8402006;28;20684;-72
2022/05/19 16:59:42;;;;;;;2.28;2.05;;;;;36.00;96750.00;;;;8404651;28;20578;-71
2022/05/19 17:03:49;;;;;;;3.90;2.63;;;;;35.90;96757.00;;;;8404988;28;20732;-71
2022/05/19 17:07:53;;;;;;;2.95;2.58;;;;;35.90;96758.00;;;;8392324;28;20254;-72
2022/05/19 17:11:58;;;;;;;2.38;2.17;;;;;35.90;96749.00;;;;8413758;28;20339;-71
2022/05/19 17:16:02;;;;;;;7.63;2.85;;;;;35.70;96740.00;;;;8414172;28;20302;-71
2022/05/19 17:20:07;;;;;;;5.47;2.40;;;;;35.40;96744.00;;;;8401850;28;20233;-71
2022/05/19 17:24:10;;;;;;;4.63;2.33;;;;;35.10;96741.00;;;;8410831;28;20257;-71
2022/05/19 17:28:15;;;;;;;3.28;2.33;;;;;34.70;96743.00;;;;8398099;28;20322;-71
2022/05/19 17:32:18;;;;;;;4.88;2.38;;;;;34.10;96742.00;;;;8398212;28;20228;-71
2022/05/19 17:36:22;;;;;;;4.72;2.45;;;;;33.30;96730.00;;;;8407750;28;20280;-71
2022/05/19 17:40:26;;;;;;;3.08;2.80;;;;;32.60;96743.00;;;;8404770;28;20311;-71
2022/05/19 17:44:31;;;;;;;2.47;2.38;;;;;31.70;96734.00;;;;8410773;28;20655;-71
2022/05/19 17:48:36;;;;;;;3.20;3.00;;;;;31.00;96731.00;;;;8414138;28;20227;-71
2022/05/19 17:52:39;;;;;;;2.70;2.50;;;;;30.40;96741.00;;;;8411299;28;20335;-70
2022/05/19 17:56:43;;;;;;;3.25;3.05;;;;;29.70;96735.00;;;;8413545;28;21141;-71
2022/05/19 18:00:49;;;;;;;2.97;2.78;;;;;29.20;96740.00;;;;8413268;28;20241;-71
2022/05/19 18:04:52;;;;;;;4.57;3.13;;;;;28.60;96743.00;;;;8414150;28;20272;-71
2022/05/19 18:08:56;;;;;;;5.88;3.40;;;;;28.20;96741.00;;;;8404359;28;20226;-71
2022/05/19 18:13:02;;;;;;;3.47;3.13;;;;;27.70;96755.00;;;;8408989;28;20238;-72
2022/05/19 18:21:29;;;;;;;3.75;3.38;;;;;26.90;96753.00;;;;8393870;28;20230;-70
2022/05/19 18:25:33;;;;;;;4.57;3.03;;;;;26.50;96751.00;;;;8397679;28;20258;-70
2022/05/19 18:29:37;;;;;;;3.53;3.20;;;;;26.20;96746.00;;;;8399886;28;20242;-70
2022/05/19 18:33:42;;;;;;;3.53;3.28;;;;;25.90;96743.00;;;;8406530;28;20288;-71
2022/05/19 18:37:46;;;;;;;9.13;3.40;;;;;25.70;96748.00;;;;8407782;28;20227;-72
2022/05/19 18:46:10;;;;;;;6.10;3.47;;;;;25.40;96739.00;;;;8411837;28;20338;-72
2022/05/19 18:50:15;;;;;;;3.63;3.00;;;;;25.30;96746.00;;;;8415421;28;20233;-72
2022/05/19 18:54:18;;;;;;;7.40;3.55;;;;;25.20;96764.00;;;;8415728;28;20724;-72
2022/05/19 18:58:21;;;;;;;7.55;3.67;;;;;25.10;96771.00;;;;8410898;28;20227;-72
2022/05/19 19:02:26;;;;;;;6.60;3.55;;;;;25.20;96770.00;;;;8404098;28;20876;-71
2022/05/19 19:06:31;;;;;;;7.68;3.53;;;;;25.00;96765.00;;;;8400835;28;20569;-71
2022/05/19 19:10:34;;;;;;;5.30;3.22;;;;;24.90;96754.00;;;;8403531;28;20588;-72
2022/05/19 19:14:39;;;;;;;5.20;3.90;;;;;24.80;96762.00;;;;8402227;28;21290;-71
2022/05/19 19:18:44;;;;;;;5.40;3.70;;;;;24.60;96758.00;;;;8398921;28;20231;-72
2022/05/19 19:22:51;;;;;;;7.10;4.45;;;;;24.40;96743.00;;;;8409118;28;20227;-71
2022/05/19 19:26:54;;;;;;;5.57;4.85;;;;;24.10;96761.00;;;;8399298;28;20704;-72
2022/05/19 19:30:58;;;;;;;4.93;3.75;;;;;23.90;96752.00;;;;8394424;28;20227;-71
2022/05/19 19:35:01;;;;;;;5.10;4.60;;;;;23.80;96755.00;;;;8404966;28;20234;-71
2022/05/19 19:39:07;;;;;;;4.47;3.47;;;;;23.70;96772.00;;;;8403721;28;20226;-73
2022/05/19 19:43:10;;;;;;;8.23;4.88;;;;;23.20;96766.00;;;;8389772;28;20220;-73
2022/05/19 19:47:14;;;;;;;7.93;5.82;;;;;22.50;96763.00;;;;8402746;28;20826;-73
2022/05/19 19:55:40;;;;;;;9.95;6.65;;;;;21.40;96755.00;;;;8395958;28;20218;-73
2022/05/19 19:59:43;;;;;;;9.23;5.50;;;;;21.10;96762.00;;;;8402710;28;20235;-74
2022/05/19 20:03:47;;;;;;;11.98;6.80;;;;;21.00;96774.00;;;;8409225;28;20739;-73
2022/05/19 20:07:50;;;;;;;8.35;6.88;;;;;20.90;96787.00;;;;8404395;28;20652;-72
2022/05/19 20:11:55;;;;;;;12.20;7.50;;;;;20.80;96795.00;;;;8400733;28;20221;-72
2022/05/19 20:16:00;;;;;;;11.68;8.05;;;;;20.80;96793.00;;;;8409971;28;20230;-73
2022/05/19 20:20:05;;;;;;;13.88;8.32;;;;;20.80;96797.00;;;;8404977;28;20227;-73
2022/05/19 20:24:10;;;;;;;10.10;6.13;;;;;20.80;96808.00;;;;8402955;28;20241;-72
2022/05/19 20:28:14;;;;;;;11.73;6.60;;;;;20.80;96808.00;;;;8399016;28;20310;-72
2022/05/19 20:32:20;;;;;;;8.88;7.53;;;;;20.80;96875.00;;;;8408786;28;20231;-72
2022/05/19 20:36:24;;;;;;;4.55;3.15;;;;;21.00;96926.00;;;;8404637;28;20235;-71
2022/05/19 20:40:27;;;;;;;10.13;3.78;;;;;21.60;96975.00;;;;8409595;28;20318;-73
2022/05/19 20:44:31;;;;;;;17.23;4.75;;;;;20.20;97005.00;;;;8413985;28;20246;-71
2022/05/19 20:48:35;;;;;;;3.83;2.47;;;;;19.10;97019.00;;;;8408773;28;20247;-66
2022/05/19 20:52:38;;;;;;;0.40;0.40;;;;;18.40;97014.00;;;;8411514;28;20342;-67
2022/05/19 20:56:42;;;;;;;0.60;0.60;;;;;18.10;97039.00;;;;8404744;28;20233;-68
2022/05/19 21:00:47;;;;;;;0.40;0.40;;;;;17.90;97059.00;;;;8407216;28;20236;-68
2022/05/19 21:04:50;;;;;;;0.40;0.40;;;;;17.80;97079.00;;;;8402571;28;20263;-69
2022/05/19 21:08:54;;;;;;;0.40;0.40;;;;;17.80;97089.00;;;;8396906;28;20672;-73
2022/05/19 21:12:57;;;;;;;0.40;0.40;;;;;17.90;97091.00;;;;8404077;28;20230;-68
2022/05/19 21:17:02;;;;;;;0.40;0.40;;;;;18.00;97085.00;;;;8397032;28;20322;-69
2022/05/19 21:21:05;;;;;;;0.40;0.40;;;;;18.00;97079.00;;;;8396097;28;20219;-67